sensor_id;sensor_type;location;lat;lon;timestamp;P1;durP1;ratioP1;P2;durP2;ratioP2
17852;SDS011;9052;53.494;14.376;2023-05-19T00:01:28;9.87;;;2.50;;
17852;SDS011;9052;53.494;14.376;2023-05-19T00:03:56;12.07;;;2.57;;
17852;SDS011;9052;53.494;14.376;2023-05-19T00:06:27;2.43;;;1.60;;
17852;SDS011;9052;53.494;14.376;2023-05-19T00:08:57;9.00;;;2.57;;
17852;SDS011;9052;53.494;14.376;2023-05-19T00:11:24;5.93;;;2.00;;
17852;SDS011;9052;53.494;14.376;2023-05-19T00:13:53;13.87;;;2.00;;
17852;SDS011;9052;53.494;14.376;2023-05-19T00:16:20;3.73;;;2.07;;
17852;SDS011;9052;53.494;14.376;2023-05-19T00:18:52;5.13;;;1.73;;
17852;SDS011;9052;53.494;14.376;2023-05-19T00:21:24;11.43;;;2.53;;
17852;SDS011;9052;53.494;14.376;2023-05-19T00:23:51;3.73;;;2.03;;
17852;SDS011;9052;53.494;14.376;2023-05-19T00:26:18;5.57;;;2.10;;
17852;SDS011;9052;53.494;14.376;2023-05-19T00:28:47;4.43;;;2.30;;
17852;SDS011;9052;53.494;14.376;2023-05-19T00:31:14;4.57;;;1.83;;
17852;SDS011;9052;53.494;14.376;2023-05-19T00:33:42;2.60;;;1.60;;
17852;SDS011;9052;53.494;14.376;2023-05-19T00:36:10;12.20;;;2.23;;
17852;SDS011;9052;53.494;14.376;2023-05-19T00:38:37;7.20;;;1.90;;
17852;SDS011;9052;53.494;14.376;2023-05-19T00:41:05;4.70;;;1.83;;
17852;SDS011;9052;53.494;14.376;2023-05-19T00:43:32;5.37;;;1.63;;
17852;SDS011;9052;53.494;14.376;2023-05-19T00:46:00;2.50;;;2.10;;
17852;SDS011;9052;53.494;14.376;2023-05-19T00:48:27;6.50;;;1.43;;
17852;SDS011;9052;53.494;14.376;2023-05-19T00:50:55;6.80;;;1.90;;
17852;SDS011;9052;53.494;14.376;2023-05-19T00:53:29;8.90;;;1.63;;
17852;SDS011;9052;53.494;14.376;2023-05-19T00:55:58;8.93;;;1.63;;
17852;SDS011;9052;53.494;14.376;2023-05-19T00:58:25;8.30;;;1.63;;
17852;SDS011;9052;53.494;14.376;2023-05-19T01:00:54;2.90;;;2.10;;
17852;SDS011;9052;53.494;14.376;2023-05-19T01:03:27;16.93;;;3.20;;
17852;SDS011;9052;53.494;14.376;2023-05-19T01:05:56;4.10;;;2.47;;
17852;SDS011;9052;53.494;14.376;2023-05-19T01:08:26;2.03;;;1.80;;
17852;SDS011;9052;53.494;14.376;2023-05-19T01:10:54;6.33;;;2.43;;
17852;SDS011;9052;53.494;14.376;2023-05-19T01:13:21;4.27;;;2.43;;
17852;SDS011;9052;53.494;14.376;2023-05-19T01:15:55;2.80;;;2.10;;
17852;SDS011;9052;53.494;14.376;2023-05-19T01:18:28;4.33;;;2.37;;
17852;SDS011;9052;53.494;14.376;2023-05-19T01:21:06;9.00;;;2.43;;
17852;SDS011;9052;53.494;14.376;2023-05-19T01:23:54;3.17;;;1.40;;
17852;SDS011;9052;53.494;14.376;2023-05-19T01:26:46;21.47;;;2.63;;
17852;SDS011;9052;53.494;14.376;2023-05-19T01:29:40;5.50;;;1.90;;
17852;SDS011;9052;53.494;14.376;2023-05-19T01:32:11;8.63;;;2.80;;
17852;SDS011;9052;53.494;14.376;2023-05-19T01:34:41;10.73;;;3.07;;
17852;SDS011;9052;53.494;14.376;2023-05-19T01:37:11;4.07;;;1.77;;
17852;SDS011;9052;53.494;14.376;2023-05-19T01:39:39;10.20;;;2.13;;
17852;SDS011;9052;53.494;14.376;2023-05-19T01:42:07;6.40;;;2.03;;
17852;SDS011;9052;53.494;14.376;2023-05-19T01:44:34;15.60;;;2.23;;
17852;SDS011;9052;53.494;14.376;2023-05-19T01:47:01;4.13;;;1.57;;
17852;SDS011;9052;53.494;14.376;2023-05-19T01:49:29;5.63;;;1.80;;
17852;SDS011;9052;53.494;14.376;2023-05-19T01:51:56;7.90;;;1.77;;
17852;SDS011;9052;53.494;14.376;2023-05-19T01:54:23;6.23;;;1.97;;
17852;SDS011;9052;53.494;14.376;2023-05-19T01:56:51;3.00;;;1.97;;
17852;SDS011;9052;53.494;14.376;2023-05-19T01:59:28;5.77;;;1.97;;
17852;SDS011;9052;53.494;14.376;2023-05-19T02:02:04;4.90;;;2.00;;
17852;SDS011;9052;53.494;14.376;2023-05-19T02:04:37;3.27;;;2.10;;
17852;SDS011;9052;53.494;14.376;2023-05-19T02:07:09;1.77;;;1.60;;
17852;SDS011;9052;53.494;14.376;2023-05-19T02:09:40;13.93;;;2.13;;
17852;SDS011;9052;53.494;14.376;2023-05-19T02:12:18;5.80;;;1.57;;
17852;SDS011;9052;53.494;14.376;2023-05-19T02:14:49;3.07;;;1.50;;
17852;SDS011;9052;53.494;14.376;2023-05-19T02:17:20;4.23;;;2.27;;
17852;SDS011;9052;53.494;14.376;2023-05-19T02:19:50;2.87;;;1.70;;
17852;SDS011;9052;53.494;14.376;2023-05-19T02:22:17;13.57;;;2.17;;
17852;SDS011;9052;53.494;14.376;2023-05-19T02:24:44;4.50;;;1.93;;
17852;SDS011;9052;53.494;14.376;2023-05-19T02:27:12;12.93;;;2.20;;
17852;SDS011;9052;53.494;14.376;2023-05-19T02:29:38;5.20;;;1.63;;
17852;SDS011;9052;53.494;14.376;2023-05-19T02:32:06;2.60;;;1.57;;
17852;SDS011;9052;53.494;14.376;2023-05-19T02:34:33;2.10;;;1.40;;
17852;SDS011;9052;53.494;14.376;2023-05-19T02:37:02;6.30;;;2.10;;
17852;SDS011;9052;53.494;14.376;2023-05-19T02:39:30;21.07;;;1.93;;
17852;SDS011;9052;53.494;14.376;2023-05-19T02:41:59;3.30;;;1.73;;
17852;SDS011;9052;53.494;14.376;2023-05-19T02:44:26;5.33;;;1.87;;
17852;SDS011;9052;53.494;14.376;2023-05-19T02:46:53;11.70;;;1.50;;
17852;SDS011;9052;53.494;14.376;2023-05-19T02:49:20;5.60;;;1.80;;
17852;SDS011;9052;53.494;14.376;2023-05-19T02:51:47;2.03;;;1.33;;
17852;SDS011;9052;53.494;14.376;2023-05-19T02:54:16;2.30;;;1.30;;
17852;SDS011;9052;53.494;14.376;2023-05-19T02:56:43;1.93;;;1.67;;
17852;SDS011;9052;53.494;14.376;2023-05-19T02:59:09;6.70;;;2.07;;
17852;SDS011;9052;53.494;14.376;2023-05-19T03:01:36;4.00;;;1.30;;
17852;SDS011;9052;53.494;14.376;2023-05-19T03:04:04;4.37;;;2.13;;
17852;SDS011;9052;53.494;14.376;2023-05-19T03:06:31;6.33;;;2.17;;
17852;SDS011;9052;53.494;14.376;2023-05-19T03:08:58;2.83;;;1.53;;
17852;SDS011;9052;53.494;14.376;2023-05-19T03:11:26;10.87;;;1.90;;
17852;SDS011;9052;53.494;14.376;2023-05-19T03:13:53;2.73;;;1.70;;
17852;SDS011;9052;53.494;14.376;2023-05-19T03:16:21;6.37;;;1.50;;
17852;SDS011;9052;53.494;14.376;2023-05-19T03:18:49;3.13;;;1.70;;
17852;SDS011;9052;53.494;14.376;2023-05-19T03:21:16;3.80;;;1.60;;
17852;SDS011;9052;53.494;14.376;2023-05-19T03:23:43;11.13;;;2.87;;
17852;SDS011;9052;53.494;14.376;2023-05-19T03:26:11;5.47;;;2.97;;
17852;SDS011;9052;53.494;14.376;2023-05-19T03:28:39;3.87;;;2.53;;
17852;SDS011;9052;53.494;14.376;2023-05-19T03:31:06;5.50;;;3.53;;
17852;SDS011;9052;53.494;14.376;2023-05-19T03:33:33;6.63;;;4.43;;
17852;SDS011;9052;53.494;14.376;2023-05-19T03:36:01;7.43;;;3.37;;
17852;SDS011;9052;53.494;14.376;2023-05-19T03:38:29;5.40;;;3.03;;
17852;SDS011;9052;53.494;14.376;2023-05-19T03:40:56;6.07;;;2.50;;
17852;SDS011;9052;53.494;14.376;2023-05-19T03:43:23;5.83;;;2.50;;
17852;SDS011;9052;53.494;14.376;2023-05-19T03:45:52;5.10;;;2.50;;
17852;SDS011;9052;53.494;14.376;2023-05-19T03:48:19;5.30;;;3.37;;
17852;SDS011;9052;53.494;14.376;2023-05-19T03:50:46;9.80;;;3.43;;
17852;SDS011;9052;53.494;14.376;2023-05-19T03:53:13;4.03;;;3.10;;
17852;SDS011;9052;53.494;14.376;2023-05-19T03:55:40;8.43;;;3.93;;
17852;SDS011;9052;53.494;14.376;2023-05-19T03:58:08;19.17;;;3.03;;
17852;SDS011;9052;53.494;14.376;2023-05-19T04:00:38;5.23;;;2.53;;
17852;SDS011;9052;53.494;14.376;2023-05-19T04:03:07;9.73;;;3.93;;
17852;SDS011;9052;53.494;14.376;2023-05-19T04:05:34;11.33;;;5.27;;
17852;SDS011;9052;53.494;14.376;2023-05-19T04:08:01;9.00;;;5.43;;
17852;SDS011;9052;53.494;14.376;2023-05-19T04:10:28;9.27;;;3.27;;
17852;SDS011;9052;53.494;14.376;2023-05-19T04:12:55;4.00;;;2.00;;
17852;SDS011;9052;53.494;14.376;2023-05-19T04:15:22;2.47;;;1.40;;
17852;SDS011;9052;53.494;14.376;2023-05-19T04:17:49;6.17;;;2.00;;
17852;SDS011;9052;53.494;14.376;2023-05-19T04:20:17;9.47;;;3.00;;
17852;SDS011;9052;53.494;14.376;2023-05-19T04:22:44;7.27;;;2.27;;
17852;SDS011;9052;53.494;14.376;2023-05-19T04:25:11;8.33;;;2.57;;
17852;SDS011;9052;53.494;14.376;2023-05-19T04:27:38;5.77;;;3.37;;
17852;SDS011;9052;53.494;14.376;2023-05-19T04:30:05;6.17;;;2.30;;
17852;SDS011;9052;53.494;14.376;2023-05-19T04:32:34;2.03;;;1.80;;
17852;SDS011;9052;53.494;14.376;2023-05-19T04:35:01;6.83;;;2.10;;
17852;SDS011;9052;53.494;14.376;2023-05-19T04:37:30;5.20;;;2.20;;
17852;SDS011;9052;53.494;14.376;2023-05-19T04:39:57;6.53;;;1.87;;
17852;SDS011;9052;53.494;14.376;2023-05-19T04:42:24;3.07;;;2.03;;
17852;SDS011;9052;53.494;14.376;2023-05-19T04:44:54;4.73;;;1.67;;
17852;SDS011;9052;53.494;14.376;2023-05-19T04:47:21;5.60;;;2.20;;
17852;SDS011;9052;53.494;14.376;2023-05-19T04:49:53;7.80;;;2.77;;
17852;SDS011;9052;53.494;14.376;2023-05-19T04:52:20;5.97;;;2.40;;
17852;SDS011;9052;53.494;14.376;2023-05-19T04:54:49;7.50;;;4.30;;
17852;SDS011;9052;53.494;14.376;2023-05-19T04:57:16;7.60;;;3.63;;
17852;SDS011;9052;53.494;14.376;2023-05-19T04:59:43;7.40;;;6.17;;
17852;SDS011;9052;53.494;14.376;2023-05-19T05:02:11;16.47;;;6.67;;
17852;SDS011;9052;53.494;14.376;2023-05-19T05:04:38;8.33;;;4.20;;
17852;SDS011;9052;53.494;14.376;2023-05-19T05:07:07;5.90;;;3.20;;
17852;SDS011;9052;53.494;14.376;2023-05-19T05:09:34;8.20;;;2.70;;
17852;SDS011;9052;53.494;14.376;2023-05-19T05:12:04;5.80;;;2.40;;
17852;SDS011;9052;53.494;14.376;2023-05-19T05:14:33;4.30;;;2.13;;
17852;SDS011;9052;53.494;14.376;2023-05-19T05:17:01;3.70;;;2.60;;
17852;SDS011;9052;53.494;14.376;2023-05-19T05:19:28;4.40;;;2.27;;
17852;SDS011;9052;53.494;14.376;2023-05-19T05:21:56;8.77;;;2.87;;
17852;SDS011;9052;53.494;14.376;2023-05-19T05:24:23;7.03;;;2.93;;
17852;SDS011;9052;53.494;14.376;2023-05-19T05:26:51;3.70;;;2.73;;
17852;SDS011;9052;53.494;14.376;2023-05-19T05:29:20;2.27;;;1.90;;
17852;SDS011;9052;53.494;14.376;2023-05-19T05:31:46;4.43;;;1.93;;
17852;SDS011;9052;53.494;14.376;2023-05-19T05:34:13;6.83;;;3.10;;
17852;SDS011;9052;53.494;14.376;2023-05-19T05:36:41;5.73;;;2.77;;
17852;SDS011;9052;53.494;14.376;2023-05-19T05:39:08;9.53;;;2.70;;
17852;SDS011;9052;53.494;14.376;2023-05-19T05:41:35;5.03;;;2.33;;
17852;SDS011;9052;53.494;14.376;2023-05-19T05:44:02;11.43;;;2.50;;
17852;SDS011;9052;53.494;14.376;2023-05-19T05:46:30;9.67;;;3.00;;
17852;SDS011;9052;53.494;14.376;2023-05-19T05:48:57;9.10;;;2.50;;
17852;SDS011;9052;53.494;14.376;2023-05-19T05:51:25;5.20;;;2.77;;
17852;SDS011;9052;53.494;14.376;2023-05-19T05:53:52;4.03;;;2.40;;
17852;SDS011;9052;53.494;14.376;2023-05-19T05:56:20;11.43;;;2.90;;
17852;SDS011;9052;53.494;14.376;2023-05-19T05:58:48;2.63;;;2.03;;
17852;SDS011;9052;53.494;14.376;2023-05-19T06:01:15;5.80;;;1.97;;
17852;SDS011;9052;53.494;14.376;2023-05-19T06:03:43;3.40;;;2.10;;
17852;SDS011;9052;53.494;14.376;2023-05-19T06:06:10;7.70;;;2.27;;
17852;SDS011;9052;53.494;14.376;2023-05-19T06:08:37;4.30;;;1.63;;
17852;SDS011;9052;53.494;14.376;2023-05-19T06:11:04;8.10;;;2.00;;
17852;SDS011;9052;53.494;14.376;2023-05-19T06:13:33;7.73;;;2.10;;
17852;SDS011;9052;53.494;14.376;2023-05-19T06:16:00;8.63;;;1.33;;
17852;SDS011;9052;53.494;14.376;2023-05-19T06:18:27;3.70;;;1.63;;
17852;SDS011;9052;53.494;14.376;2023-05-19T06:20:55;4.10;;;1.77;;
17852;SDS011;9052;53.494;14.376;2023-05-19T06:23:22;5.60;;;1.97;;
17852;SDS011;9052;53.494;14.376;2023-05-19T06:25:50;4.60;;;1.30;;
17852;SDS011;9052;53.494;14.376;2023-05-19T06:28:17;2.93;;;1.90;;
17852;SDS011;9052;53.494;14.376;2023-05-19T06:30:45;7.87;;;1.93;;
17852;SDS011;9052;53.494;14.376;2023-05-19T06:33:11;3.77;;;1.30;;
17852;SDS011;9052;53.494;14.376;2023-05-19T06:35:38;1.77;;;1.43;;
17852;SDS011;9052;53.494;14.376;2023-05-19T06:38:07;2.60;;;1.00;;
17852;SDS011;9052;53.494;14.376;2023-05-19T06:40:34;1.50;;;1.20;;
17852;SDS011;9052;53.494;14.376;2023-05-19T06:43:04;8.33;;;1.70;;
17852;SDS011;9052;53.494;14.376;2023-05-19T06:45:31;1.00;;;0.90;;
17852;SDS011;9052;53.494;14.376;2023-05-19T06:47:59;4.03;;;1.70;;
17852;SDS011;9052;53.494;14.376;2023-05-19T06:50:25;5.23;;;1.23;;
17852;SDS011;9052;53.494;14.376;2023-05-19T06:52:52;1.10;;;1.00;;
17852;SDS011;9052;53.494;14.376;2023-05-19T06:55:22;2.00;;;1.30;;
17852;SDS011;9052;53.494;14.376;2023-05-19T06:57:49;13.97;;;1.70;;
17852;SDS011;9052;53.494;14.376;2023-05-19T07:00:16;1.73;;;1.43;;
17852;SDS011;9052;53.494;14.376;2023-05-19T07:02:44;1.67;;;1.10;;
17852;SDS011;9052;53.494;14.376;2023-05-19T07:05:11;1.50;;;1.40;;
17852;SDS011;9052;53.494;14.376;2023-05-19T07:07:38;2.70;;;1.10;;
17852;SDS011;9052;53.494;14.376;2023-05-19T07:10:06;1.83;;;1.00;;
17852;SDS011;9052;53.494;14.376;2023-05-19T07:12:34;1.10;;;0.90;;
17852;SDS011;9052;53.494;14.376;2023-05-19T07:15:02;3.23;;;1.00;;
17852;SDS011;9052;53.494;14.376;2023-05-19T07:17:29;6.83;;;1.40;;
17852;SDS011;9052;53.494;14.376;2023-05-19T07:19:56;0.97;;;0.97;;
17852;SDS011;9052;53.494;14.376;2023-05-19T07:22:23;1.77;;;1.30;;
17852;SDS011;9052;53.494;14.376;2023-05-19T07:24:50;1.50;;;0.93;;
17852;SDS011;9052;53.494;14.376;2023-05-19T07:27:17;2.50;;;1.10;;
17852;SDS011;9052;53.494;14.376;2023-05-19T07:29:45;3.00;;;1.50;;
17852;SDS011;9052;53.494;14.376;2023-05-19T07:32:12;1.87;;;1.33;;
17852;SDS011;9052;53.494;14.376;2023-05-19T07:34:39;6.10;;;1.67;;
17852;SDS011;9052;53.494;14.376;2023-05-19T07:37:06;1.80;;;1.07;;
17852;SDS011;9052;53.494;14.376;2023-05-19T07:39:33;2.40;;;1.40;;
17852;SDS011;9052;53.494;14.376;2023-05-19T07:42:00;0.97;;;0.97;;
17852;SDS011;9052;53.494;14.376;2023-05-19T07:44:27;6.00;;;1.43;;
17852;SDS011;9052;53.494;14.376;2023-05-19T07:46:56;14.50;;;1.57;;
17852;SDS011;9052;53.494;14.376;2023-05-19T07:49:23;1.70;;;1.17;;
17852;SDS011;9052;53.494;14.376;2023-05-19T07:51:50;2.10;;;1.20;;
17852;SDS011;9052;53.494;14.376;2023-05-19T07:54:17;18.57;;;1.50;;
17852;SDS011;9052;53.494;14.376;2023-05-19T07:56:44;4.50;;;1.60;;
17852;SDS011;9052;53.494;14.376;2023-05-19T07:59:12;10.03;;;1.50;;
17852;SDS011;9052;53.494;14.376;2023-05-19T08:01:39;3.80;;;1.27;;
17852;SDS011;9052;53.494;14.376;2023-05-19T08:04:07;5.70;;;1.43;;
17852;SDS011;9052;53.494;14.376;2023-05-19T08:06:35;5.33;;;1.43;;
17852;SDS011;9052;53.494;14.376;2023-05-19T08:09:02;1.50;;;0.90;;
17852;SDS011;9052;53.494;14.376;2023-05-19T08:11:31;1.10;;;0.93;;
17852;SDS011;9052;53.494;14.376;2023-05-19T08:14:03;3.43;;;0.77;;
17852;SDS011;9052;53.494;14.376;2023-05-19T08:16:30;1.30;;;0.90;;
17852;SDS011;9052;53.494;14.376;2023-05-19T08:18:57;2.37;;;1.07;;
17852;SDS011;9052;53.494;14.376;2023-05-19T08:21:28;1.40;;;0.80;;
17852;SDS011;9052;53.494;14.376;2023-05-19T08:23:55;1.13;;;1.00;;
17852;SDS011;9052;53.494;14.376;2023-05-19T08:26:22;6.93;;;1.30;;
17852;SDS011;9052;53.494;14.376;2023-05-19T08:28:51;1.63;;;1.10;;
17852;SDS011;9052;53.494;14.376;2023-05-19T08:31:18;3.53;;;1.20;;
17852;SDS011;9052;53.494;14.376;2023-05-19T08:33:46;1.53;;;1.43;;
17852;SDS011;9052;53.494;14.376;2023-05-19T08:36:13;4.23;;;0.90;;
17852;SDS011;9052;53.494;14.376;2023-05-19T08:38:43;4.60;;;1.10;;
17852;SDS011;9052;53.494;14.376;2023-05-19T08:41:09;2.80;;;1.03;;
17852;SDS011;9052;53.494;14.376;2023-05-19T08:43:36;0.87;;;0.87;;
17852;SDS011;9052;53.494;14.376;2023-05-19T08:46:04;12.50;;;1.00;;
17852;SDS011;9052;53.494;14.376;2023-05-19T08:48:33;5.67;;;1.20;;
17852;SDS011;9052;53.494;14.376;2023-05-19T08:51:09;1.90;;;0.93;;
17852;SDS011;9052;53.494;14.376;2023-05-19T08:53:40;2.10;;;1.10;;
17852;SDS011;9052;53.494;14.376;2023-05-19T08:56:13;4.50;;;1.23;;
17852;SDS011;9052;53.494;14.376;2023-05-19T08:58:43;7.50;;;1.47;;
17852;SDS011;9052;53.494;14.376;2023-05-19T09:01:12;0.90;;;0.90;;
17852;SDS011;9052;53.494;14.376;2023-05-19T09:03:41;1.80;;;1.07;;
17852;SDS011;9052;53.494;14.376;2023-05-19T09:06:09;2.10;;;1.07;;
17852;SDS011;9052;53.494;14.376;2023-05-19T09:08:37;6.33;;;0.80;;
17852;SDS011;9052;53.494;14.376;2023-05-19T09:11:06;1.87;;;0.80;;
17852;SDS011;9052;53.494;14.376;2023-05-19T09:13:34;1.93;;;1.20;;
17852;SDS011;9052;53.494;14.376;2023-05-19T09:16:01;2.07;;;1.20;;
17852;SDS011;9052;53.494;14.376;2023-05-19T09:18:28;1.50;;;0.90;;
17852;SDS011;9052;53.494;14.376;2023-05-19T09:20:56;12.70;;;1.30;;
17852;SDS011;9052;53.494;14.376;2023-05-19T09:23:26;2.50;;;1.23;;
17852;SDS011;9052;53.494;14.376;2023-05-19T09:25:54;1.93;;;1.00;;
17852;SDS011;9052;53.494;14.376;2023-05-19T09:28:24;2.03;;;1.30;;
17852;SDS011;9052;53.494;14.376;2023-05-19T09:31:01;6.10;;;1.53;;
17852;SDS011;9052;53.494;14.376;2023-05-19T09:33:29;2.47;;;1.37;;
17852;SDS011;9052;53.494;14.376;2023-05-19T09:35:58;10.83;;;3.00;;
17852;SDS011;9052;53.494;14.376;2023-05-19T09:38:25;2.30;;;1.30;;
17852;SDS011;9052;53.494;14.376;2023-05-19T09:40:54;2.70;;;1.47;;
17852;SDS011;9052;53.494;14.376;2023-05-19T09:43:23;5.00;;;2.00;;
17852;SDS011;9052;53.494;14.376;2023-05-19T09:45:54;2.93;;;1.30;;
17852;SDS011;9052;53.494;14.376;2023-05-19T09:48:25;2.27;;;1.00;;
17852;SDS011;9052;53.494;14.376;2023-05-19T09:50:52;1.40;;;1.10;;
17852;SDS011;9052;53.494;14.376;2023-05-19T09:53:19;2.20;;;1.23;;
17852;SDS011;9052;53.494;14.376;2023-05-19T09:55:46;1.67;;;0.93;;
17852;SDS011;9052;53.494;14.376;2023-05-19T09:58:15;5.20;;;1.03;;
17852;SDS011;9052;53.494;14.376;2023-05-19T10:00:45;2.60;;;1.30;;
17852;SDS011;9052;53.494;14.376;2023-05-19T10:03:13;2.17;;;0.90;;
17852;SDS011;9052;53.494;14.376;2023-05-19T10:05:41;1.90;;;1.17;;
17852;SDS011;9052;53.494;14.376;2023-05-19T10:08:11;1.73;;;1.10;;
17852;SDS011;9052;53.494;14.376;2023-05-19T10:10:38;7.00;;;1.33;;
17852;SDS011;9052;53.494;14.376;2023-05-19T10:13:05;1.10;;;1.03;;
17852;SDS011;9052;53.494;14.376;2023-05-19T10:15:33;0.80;;;0.70;;
17852;SDS011;9052;53.494;14.376;2023-05-19T10:18:02;1.30;;;1.20;;
17852;SDS011;9052;53.494;14.376;2023-05-19T10:20:30;2.90;;;0.93;;
17852;SDS011;9052;53.494;14.376;2023-05-19T10:22:59;1.10;;;1.03;;
17852;SDS011;9052;53.494;14.376;2023-05-19T10:25:27;1.27;;;1.10;;
17852;SDS011;9052;53.494;14.376;2023-05-19T10:27:55;1.73;;;1.07;;
17852;SDS011;9052;53.494;14.376;2023-05-19T10:30:24;4.77;;;1.00;;
17852;SDS011;9052;53.494;14.376;2023-05-19T10:32:52;1.83;;;1.00;;
17852;SDS011;9052;53.494;14.376;2023-05-19T10:38:26;3.20;;;1.10;;
17852;SDS011;9052;53.494;14.376;2023-05-19T10:40:59;4.47;;;1.20;;
17852;SDS011;9052;53.494;14.376;2023-05-19T10:43:33;1.97;;;1.27;;
17852;SDS011;9052;53.494;14.376;2023-05-19T10:46:04;5.50;;;0.90;;
17852;SDS011;9052;53.494;14.376;2023-05-19T10:48:32;5.20;;;1.20;;
17852;SDS011;9052;53.494;14.376;2023-05-19T10:51:00;1.83;;;0.80;;
17852;SDS011;9052;53.494;14.376;2023-05-19T10:53:30;9.70;;;0.87;;
17852;SDS011;9052;53.494;14.376;2023-05-19T10:55:59;2.30;;;0.80;;
17852;SDS011;9052;53.494;14.376;2023-05-19T11:01:19;1.20;;;1.10;;
17852;SDS011;9052;53.494;14.376;2023-05-19T11:03:49;1.83;;;1.13;;
17852;SDS011;9052;53.494;14.376;2023-05-19T11:06:23;7.97;;;1.77;;
17852;SDS011;9052;53.494;14.376;2023-05-19T11:08:52;3.57;;;0.90;;
17852;SDS011;9052;53.494;14.376;2023-05-19T11:11:20;1.00;;;0.90;;
17852;SDS011;9052;53.494;14.376;2023-05-19T11:13:49;1.43;;;1.17;;
17852;SDS011;9052;53.494;14.376;2023-05-19T11:16:25;3.03;;;1.03;;
17852;SDS011;9052;53.494;14.376;2023-05-19T11:18:53;1.73;;;0.90;;
17852;SDS011;9052;53.494;14.376;2023-05-19T11:21:20;1.23;;;1.13;;
17852;SDS011;9052;53.494;14.376;2023-05-19T11:23:48;2.03;;;0.80;;
17852;SDS011;9052;53.494;14.376;2023-05-19T11:26:25;2.63;;;1.40;;
17852;SDS011;9052;53.494;14.376;2023-05-19T11:29:05;1.13;;;1.03;;
17852;SDS011;9052;53.494;14.376;2023-05-19T11:31:35;0.97;;;0.97;;
17852;SDS011;9052;53.494;14.376;2023-05-19T11:34:03;25.03;;;1.00;;
17852;SDS011;9052;53.494;14.376;2023-05-19T11:36:32;1.57;;;0.93;;
17852;SDS011;9052;53.494;14.376;2023-05-19T11:39:00;1.67;;;0.77;;
17852;SDS011;9052;53.494;14.376;2023-05-19T11:41:28;1.67;;;0.80;;
17852;SDS011;9052;53.494;14.376;2023-05-19T11:43:55;6.50;;;1.00;;
17852;SDS011;9052;53.494;14.376;2023-05-19T11:46:22;1.90;;;1.30;;
17852;SDS011;9052;53.494;14.376;2023-05-19T11:48:50;10.63;;;1.00;;
17852;SDS011;9052;53.494;14.376;2023-05-19T11:51:20;8.03;;;1.07;;
17852;SDS011;9052;53.494;14.376;2023-05-19T11:53:48;3.17;;;1.23;;
17852;SDS011;9052;53.494;14.376;2023-05-19T11:56:15;7.57;;;0.80;;
17852;SDS011;9052;53.494;14.376;2023-05-19T11:58:44;8.40;;;1.23;;
17852;SDS011;9052;53.494;14.376;2023-05-19T12:01:11;0.70;;;0.70;;
17852;SDS011;9052;53.494;14.376;2023-05-19T12:03:38;2.00;;;0.90;;
17852;SDS011;9052;53.494;14.376;2023-05-19T12:06:06;4.20;;;0.90;;
17852;SDS011;9052;53.494;14.376;2023-05-19T12:08:34;2.80;;;1.10;;
17852;SDS011;9052;53.494;14.376;2023-05-19T12:11:01;4.03;;;0.93;;
17852;SDS011;9052;53.494;14.376;2023-05-19T12:13:29;3.20;;;0.90;;
17852;SDS011;9052;53.494;14.376;2023-05-19T12:15:59;3.83;;;0.70;;
17852;SDS011;9052;53.494;14.376;2023-05-19T12:18:28;4.30;;;1.13;;
17852;SDS011;9052;53.494;14.376;2023-05-19T12:20:56;3.00;;;0.80;;
17852;SDS011;9052;53.494;14.376;2023-05-19T12:23:23;4.37;;;0.80;;
17852;SDS011;9052;53.494;14.376;2023-05-19T12:25:50;2.93;;;0.80;;
17852;SDS011;9052;53.494;14.376;2023-05-19T12:28:18;0.70;;;0.70;;
17852;SDS011;9052;53.494;14.376;2023-05-19T12:30:46;1.10;;;0.80;;
17852;SDS011;9052;53.494;14.376;2023-05-19T12:33:17;2.40;;;1.20;;
17852;SDS011;9052;53.494;14.376;2023-05-19T12:35:45;5.47;;;1.33;;
17852;SDS011;9052;53.494;14.376;2023-05-19T12:38:14;6.53;;;1.33;;
17852;SDS011;9052;53.494;14.376;2023-05-19T12:40:41;4.10;;;1.43;;
17852;SDS011;9052;53.494;14.376;2023-05-19T12:43:18;6.93;;;0.93;;
17852;SDS011;9052;53.494;14.376;2023-05-19T12:45:46;4.73;;;1.07;;
17852;SDS011;9052;53.494;14.376;2023-05-19T12:48:13;1.10;;;0.73;;
17852;SDS011;9052;53.494;14.376;2023-05-19T12:50:42;1.70;;;1.20;;
17852;SDS011;9052;53.494;14.376;2023-05-19T12:53:10;0.87;;;0.80;;
17852;SDS011;9052;53.494;14.376;2023-05-19T12:55:38;7.13;;;0.93;;
17852;SDS011;9052;53.494;14.376;2023-05-19T12:58:07;0.93;;;0.80;;
17852;SDS011;9052;53.494;14.376;2023-05-19T13:00:38;1.90;;;0.80;;
17852;SDS011;9052;53.494;14.376;2023-05-19T13:03:13;1.30;;;1.20;;
17852;SDS011;9052;53.494;14.376;2023-05-19T13:05:42;1.10;;;1.07;;
17852;SDS011;9052;53.494;14.376;2023-05-19T13:08:11;2.60;;;1.23;;
17852;SDS011;9052;53.494;14.376;2023-05-19T13:10:40;5.13;;;1.30;;
17852;SDS011;9052;53.494;14.376;2023-05-19T13:13:08;4.00;;;1.07;;
17852;SDS011;9052;53.494;14.376;2023-05-19T13:15:39;6.63;;;1.07;;
17852;SDS011;9052;53.494;14.376;2023-05-19T13:18:07;2.97;;;0.97;;
17852;SDS011;9052;53.494;14.376;2023-05-19T13:20:35;1.60;;;1.33;;
17852;SDS011;9052;53.494;14.376;2023-05-19T13:23:04;1.00;;;0.77;;
17852;SDS011;9052;53.494;14.376;2023-05-19T13:25:32;3.93;;;1.00;;
17852;SDS011;9052;53.494;14.376;2023-05-19T13:28:00;1.27;;;0.93;;
17852;SDS011;9052;53.494;14.376;2023-05-19T13:30:30;7.23;;;0.87;;
17852;SDS011;9052;53.494;14.376;2023-05-19T13:32:57;3.47;;;0.80;;
17852;SDS011;9052;53.494;14.376;2023-05-19T13:35:24;2.23;;;0.87;;
17852;SDS011;9052;53.494;14.376;2023-05-19T13:37:51;1.57;;;1.10;;
17852;SDS011;9052;53.494;14.376;2023-05-19T13:40:20;1.97;;;1.03;;
17852;SDS011;9052;53.494;14.376;2023-05-19T13:42:48;2.57;;;1.00;;
17852;SDS011;9052;53.494;14.376;2023-05-19T13:45:15;2.97;;;1.03;;
17852;SDS011;9052;53.494;14.376;2023-05-19T13:47:44;1.53;;;1.00;;
17852;SDS011;9052;53.494;14.376;2023-05-19T13:50:11;1.00;;;1.00;;
17852;SDS011;9052;53.494;14.376;2023-05-19T13:52:38;5.03;;;1.37;;
17852;SDS011;9052;53.494;14.376;2023-05-19T13:55:05;3.10;;;1.23;;
17852;SDS011;9052;53.494;14.376;2023-05-19T13:57:34;3.33;;;1.37;;
17852;SDS011;9052;53.494;14.376;2023-05-19T14:00:02;1.10;;;1.00;;
17852;SDS011;9052;53.494;14.376;2023-05-19T14:02:30;1.10;;;1.00;;
17852;SDS011;9052;53.494;14.376;2023-05-19T14:04:58;4.83;;;1.53;;
17852;SDS011;9052;53.494;14.376;2023-05-19T14:07:43;1.87;;;0.90;;
17852;SDS011;9052;53.494;14.376;2023-05-19T14:10:10;3.53;;;1.03;;
17852;SDS011;9052;53.494;14.376;2023-05-19T14:12:39;10.13;;;2.40;;
17852;SDS011;9052;53.494;14.376;2023-05-19T14:15:06;1.10;;;1.10;;
17852;SDS011;9052;53.494;14.376;2023-05-19T14:17:34;7.73;;;0.90;;
17852;SDS011;9052;53.494;14.376;2023-05-19T14:20:01;4.00;;;0.87;;
17852;SDS011;9052;53.494;14.376;2023-05-19T14:22:28;5.60;;;0.90;;
17852;SDS011;9052;53.494;14.376;2023-05-19T14:24:55;1.00;;;0.83;;
17852;SDS011;9052;53.494;14.376;2023-05-19T14:27:22;4.10;;;0.90;;
17852;SDS011;9052;53.494;14.376;2023-05-19T14:29:51;5.50;;;0.97;;
17852;SDS011;9052;53.494;14.376;2023-05-19T14:32:18;8.27;;;1.10;;
17852;SDS011;9052;53.494;14.376;2023-05-19T14:34:45;6.53;;;1.10;;
17852;SDS011;9052;53.494;14.376;2023-05-19T14:37:19;1.20;;;1.10;;
17852;SDS011;9052;53.494;14.376;2023-05-19T14:39:48;1.50;;;1.20;;
17852;SDS011;9052;53.494;14.376;2023-05-19T14:42:15;1.30;;;1.20;;
17852;SDS011;9052;53.494;14.376;2023-05-19T14:44:43;0.90;;;0.90;;
17852;SDS011;9052;53.494;14.376;2023-05-19T14:47:11;0.93;;;0.83;;
17852;SDS011;9052;53.494;14.376;2023-05-19T14:49:38;4.50;;;0.80;;
17852;SDS011;9052;53.494;14.376;2023-05-19T14:52:06;1.67;;;0.87;;
17852;SDS011;9052;53.494;14.376;2023-05-19T14:54:33;1.83;;;1.23;;
17852;SDS011;9052;53.494;14.376;2023-05-19T14:56:59;3.80;;;0.90;;
17852;SDS011;9052;53.494;14.376;2023-05-19T14:59:27;4.03;;;1.13;;